sensor_id;sensor_type;location;lat;lon;timestamp;pressure;altitude;pressure_sealevel;temperature;humidity
58622;BME280;44389;51.578;5.456;2023-05-23T00:01:41;101725.50;;;12.95;100.00
58622;BME280;44389;51.578;5.456;2023-05-23T00:04:07;101726.59;;;13.01;100.00
58622;BME280;44389;51.578;5.456;2023-05-23T00:06:34;101716.25;;;13.01;100.00
58622;BME280;44389;51.578;5.456;2023-05-23T00:09:00;101723.13;;;13.01;100.00
58622;BME280;44389;51.578;5.456;2023-05-23T00:11:25;101724.94;;;13.04;100.00
58622;BME280;44389;51.578;5.456;2023-05-23T00:13:53;101725.69;;;13.01;100.00
58622;BME280;44389;51.578;5.456;2023-05-23T00:16:19;101724.88;;;13.02;100.00
58622;BME280;44389;51.578;5.456;2023-05-23T00:18:45;101723.13;;;13.01;100.00
58622;BME280;44389;51.578;5.456;2023-05-23T00:21:11;101722.28;;;13.02;100.00
58622;BME280;44389;51.578;5.456;2023-05-23T00:23:37;101735.31;;;13.05;100.00
58622;BME280;44389;51.578;5.456;2023-05-23T00:26:06;101729.22;;;13.03;100.00
58622;BME280;44389;51.578;5.456;2023-05-23T00:28:32;101719.78;;;13.05;100.00
58622;BME280;44389;51.578;5.456;2023-05-23T00:30:57;101726.78;;;13.08;100.00
58622;BME280;44389;51.578;5.456;2023-05-23T00:33:22;101727.69;;;13.08;100.00
58622;BME280;44389;51.578;5.456;2023-05-23T00:35:47;101741.53;;;13.10;100.00
58622;BME280;44389;51.578;5.456;2023-05-23T00:38:13;101744.97;;;13.09;100.00
58622;BME280;44389;51.578;5.456;2023-05-23T00:40:38;101747.44;;;13.06;100.00
58622;BME280;44389;51.578;5.456;2023-05-23T00:43:04;101748.25;;;13.05;100.00
58622;BME280;44389;51.578;5.456;2023-05-23T00:45:30;101753.44;;;13.05;100.00
58622;BME280;44389;51.578;5.456;2023-05-23T00:47:56;101749.13;;;13.04;100.00
58622;BME280;44389;51.578;5.456;2023-05-23T00:50:23;101747.41;;;13.05;100.00
58622;BME280;44389;51.578;5.456;2023-05-23T00:52:49;101746.41;;;13.01;100.00
58622;BME280;44389;51.578;5.456;2023-05-23T00:55:14;101749.00;;;13.01;100.00
58622;BME280;44389;51.578;5.456;2023-05-23T00:57:40;101749.81;;;13.00;100.00
58622;BME280;44389;51.578;5.456;2023-05-23T01:00:09;101749.00;;;13.01;100.00
58622;BME280;44389;51.578;5.456;2023-05-23T01:02:39;101747.22;;;13.00;100.00
58622;BME280;44389;51.578;5.456;2023-05-23T01:05:08;101750.72;;;13.00;100.00
58622;BME280;44389;51.578;5.456;2023-05-23T01:07:33;101749.00;;;13.01;100.00
58622;BME280;44389;51.578;5.456;2023-05-23T01:10:00;101749.03;;;13.02;100.00
58622;BME280;44389;51.578;5.456;2023-05-23T01:12:28;101762.75;;;13.00;100.00
58622;BME280;44389;51.578;5.456;2023-05-23T01:17:35;101766.03;;;12.94;100.00
58622;BME280;44389;51.578;5.456;2023-05-23T01:20:16;101765.16;;;12.94;100.00
58622;BME280;44389;51.578;5.456;2023-05-23T01:28:04;101766.56;;;12.85;100.00
58622;BME280;44389;51.578;5.456;2023-05-23T01:30:35;101771.66;;;12.82;100.00
58622;BME280;44389;51.578;5.456;2023-05-23T01:33:03;101775.06;;;12.81;100.00
58622;BME280;44389;51.578;5.456;2023-05-23T01:35:29;101774.06;;;12.78;100.00
58622;BME280;44389;51.578;5.456;2023-05-23T01:37:55;101773.19;;;12.77;100.00
58622;BME280;44389;51.578;5.456;2023-05-23T01:40:22;101773.19;;;12.77;100.00
58622;BME280;44389;51.578;5.456;2023-05-23T01:42:48;101778.25;;;12.74;100.00
58622;BME280;44389;51.578;5.456;2023-05-23T01:45:14;101782.44;;;12.71;100.00
58622;BME280;44389;51.578;5.456;2023-05-23T01:47:40;101783.28;;;12.70;100.00
58622;BME280;44389;51.578;5.456;2023-05-23T01:50:07;101786.63;;;12.67;100.00
58622;BME280;44389;51.578;5.456;2023-05-23T01:52:34;101782.28;;;12.66;100.00
58622;BME280;44389;51.578;5.456;2023-05-23T01:55:00;101788.25;;;12.65;100.00
58622;BME280;44389;51.578;5.456;2023-05-23T01:57:28;101791.56;;;12.61;100.00
58622;BME280;44389;51.578;5.456;2023-05-23T01:59:54;101796.25;;;12.71;100.00
58622;BME280;44389;51.578;5.456;2023-05-23T02:02:20;101801.06;;;12.60;100.00
58622;BME280;44389;51.578;5.456;2023-05-23T02:04:45;101798.38;;;12.59;100.00
58622;BME280;44389;51.578;5.456;2023-05-23T02:07:10;101806.03;;;12.56;100.00
58622;BME280;44389;51.578;5.456;2023-05-23T02:09:36;101802.50;;;12.54;100.00
58622;BME280;44389;51.578;5.456;2023-05-23T02:12:01;101797.28;;;12.52;100.00
58622;BME280;44389;51.578;5.456;2023-05-23T02:14:26;101804.22;;;12.53;100.00
58622;BME280;44389;51.578;5.456;2023-05-23T02:16:52;101803.34;;;12.52;100.00
58622;BME280;44389;51.578;5.456;2023-05-23T02:19:18;101803.34;;;12.52;100.00
58622;BME280;44389;51.578;5.456;2023-05-23T02:21:43;101811.97;;;12.53;100.00
58622;BME280;44389;51.578;5.456;2023-05-23T02:24:08;101816.28;;;12.52;100.00
58622;BME280;44389;51.578;5.456;2023-05-23T02:26:34;101819.75;;;12.53;100.00
58622;BME280;44389;51.578;5.456;2023-05-23T02:28:59;101813.69;;;12.52;100.00
58622;BME280;44389;51.578;5.456;2023-05-23T02:31:25;101812.84;;;12.54;100.00
58622;BME280;44389;51.578;5.456;2023-05-23T02:33:50;101810.25;;;12.54;100.00
58622;BME280;44389;51.578;5.456;2023-05-23T02:36:16;101810.25;;;12.54;100.00
58622;BME280;44389;51.578;5.456;2023-05-23T02:38:41;101808.56;;;12.54;100.00
58622;BME280;44389;51.578;5.456;2023-05-23T02:41:06;101809.44;;;12.55;100.00
58622;BME280;44389;51.578;5.456;2023-05-23T02:43:32;101815.56;;;12.57;100.00
58622;BME280;44389;51.578;5.456;2023-05-23T02:45:57;101810.50;;;12.60;100.00
58622;BME280;44389;51.578;5.456;2023-05-23T02:48:22;101812.16;;;12.58;100.00
58622;BME280;44389;51.578;5.456;2023-05-23T02:50:48;101819.91;;;12.58;100.00
58622;BME280;44389;51.578;5.456;2023-05-23T02:53:13;101819.84;;;12.56;100.00
58622;BME280;44389;51.578;5.456;2023-05-23T02:55:38;101818.97;;;12.56;100.00
58622;BME280;44389;51.578;5.456;2023-05-23T02:58:03;101812.03;;;12.55;100.00
58622;BME280;44389;51.578;5.456;2023-05-23T03:00:30;101816.47;;;12.59;100.00
58622;BME280;44389;51.578;5.456;2023-05-23T03:02:56;101813.78;;;12.56;100.00
58622;BME280;44389;51.578;5.456;2023-05-23T03:05:22;101812.84;;;12.54;100.00
58622;BME280;44389;51.578;5.456;2023-05-23T03:07:47;101812.75;;;12.50;100.00
58622;BME280;44389;51.578;5.456;2023-05-23T03:10:13;101810.06;;;12.47;100.00
58622;BME280;44389;51.578;5.456;2023-05-23T03:12:38;101815.09;;;12.44;100.00
58622;BME280;44389;51.578;5.456;2023-05-23T03:15:04;101820.97;;;12.40;100.00
58622;BME280;44389;51.578;5.456;2023-05-23T03:17:29;101822.63;;;12.38;100.00
58622;BME280;44389;51.578;5.456;2023-05-23T03:19:54;101823.38;;;12.35;100.00
58622;BME280;44389;51.578;5.456;2023-05-23T03:22:20;101816.53;;;12.36;100.00
58622;BME280;44389;51.578;5.456;2023-05-23T03:24:45;101817.38;;;12.37;100.00
58622;BME280;44389;51.578;5.456;2023-05-23T03:27:10;101816.53;;;12.36;100.00
58622;BME280;44389;51.578;5.456;2023-05-23T03:29:36;101821.75;;;12.38;100.00
58622;BME280;44389;51.578;5.456;2023-05-23T03:32:01;101819.22;;;12.39;100.00
58622;BME280;44389;51.578;5.456;2023-05-23T03:34:26;101822.69;;;12.40;100.00
58622;BME280;44389;51.578;5.456;2023-05-23T03:36:52;101818.34;;;12.39;100.00
58622;BME280;44389;51.578;5.456;2023-05-23T03:39:17;101824.53;;;12.42;100.00
58622;BME280;44389;51.578;5.456;2023-05-23T03:41:43;101827.09;;;12.42;100.00
58622;BME280;44389;51.578;5.456;2023-05-23T03:44:08;101829.75;;;12.44;100.00
58622;BME280;44389;51.578;5.456;2023-05-23T03:46:33;101828.03;;;12.44;100.00
58622;BME280;44389;51.578;5.456;2023-05-23T03:48:59;101828.97;;;12.46;100.00
58622;BME280;44389;51.578;5.456;2023-05-23T03:51:24;101824.63;;;12.45;100.00
58622;BME280;44389;51.578;5.456;2023-05-23T03:53:49;101832.47;;;12.48;100.00
58622;BME280;44389;51.578;5.456;2023-05-23T03:56:15;101829.84;;;12.47;100.00
58622;BME280;44389;51.578;5.456;2023-05-23T03:58:40;101837.66;;;12.48;100.00
58622;BME280;44389;51.578;5.456;2023-05-23T04:01:05;101837.72;;;12.50;100.00
58622;BME280;44389;51.578;5.456;2023-05-23T04:03:31;101842.13;;;12.52;100.00
58622;BME280;44389;51.578;5.456;2023-05-23T04:05:58;101838.59;;;12.50;100.00
58622;BME280;44389;51.578;5.456;2023-05-23T04:08:23;101841.19;;;12.50;100.00
58622;BME280;44389;51.578;5.456;2023-05-23T04:10:49;101847.22;;;12.51;100.00
58622;BME280;44389;51.578;5.456;2023-05-23T04:13:14;101840.38;;;12.51;100.00
58622;BME280;44389;51.578;5.456;2023-05-23T04:15:40;101849.00;;;12.52;100.00
58622;BME280;44389;51.578;5.456;2023-05-23T04:18:06;101852.47;;;12.52;100.00
58622;BME280;44389;51.578;5.456;2023-05-23T04:20:33;101846.47;;;12.54;100.00
58622;BME280;44389;51.578;5.456;2023-05-23T04:22:58;101843.06;;;12.55;100.00
58622;BME280;44389;51.578;5.456;2023-05-23T04:25:23;101856.03;;;12.56;100.00
58622;BME280;44389;51.578;5.456;2023-05-23T04:27:49;101856.88;;;12.55;100.00
58622;BME280;44389;51.578;5.456;2023-05-23T04:30:14;101856.03;;;12.56;100.00
58622;BME280;44389;51.578;5.456;2023-05-23T04:32:41;101851.75;;;12.57;100.00
58622;BME280;44389;51.578;5.456;2023-05-23T04:35:07;101860.44;;;12.59;100.00
58622;BME280;44389;51.578;5.456;2023-05-23T04:37:33;101857.94;;;12.60;100.00
58622;BME280;44389;51.578;5.456;2023-05-23T04:39:59;101871.78;;;12.62;100.00
58622;BME280;44389;51.578;5.456;2023-05-23T04:42:25;101865.84;;;12.65;100.00
58622;BME280;44389;51.578;5.456;2023-05-23T04:44:50;101867.69;;;12.67;100.00
58622;BME280;44389;51.578;5.456;2023-05-23T04:47:17;101871.25;;;12.71;100.00
58622;BME280;44389;51.578;5.456;2023-05-23T04:49:43;101877.25;;;12.70;100.00
58622;BME280;44389;51.578;5.456;2023-05-23T04:52:09;101879.97;;;12.73;100.00
58622;BME280;44389;51.578;5.456;2023-05-23T04:54:34;101878.25;;;12.74;100.00
58622;BME280;44389;51.578;5.456;2023-05-23T04:57:01;101879.13;;;12.74;100.00
58622;BME280;44389;51.578;5.456;2023-05-23T04:59:27;101888.78;;;12.78;100.00
58622;BME280;44389;51.578;5.456;2023-05-23T05:01:52;101888.78;;;12.78;100.00
58622;BME280;44389;51.578;5.456;2023-05-23T05:04:17;101893.97;;;12.78;100.00
58622;BME280;44389;51.578;5.456;2023-05-23T05:06:43;101895.50;;;12.73;100.00
58622;BME280;44389;51.578;5.456;2023-05-23T05:09:08;101891.84;;;12.68;100.00
58622;BME280;44389;51.578;5.456;2023-05-23T05:11:33;101900.28;;;12.64;100.00
58622;BME280;44389;51.578;5.456;2023-05-23T05:13:58;101898.41;;;12.60;100.00
58622;BME280;44389;51.578;5.456;2023-05-23T05:16:24;101908.53;;;12.54;100.00
58622;BME280;44389;51.578;5.456;2023-05-23T05:18:49;101904.13;;;12.51;100.00
58622;BME280;44389;51.578;5.456;2023-05-23T05:21:15;101902.13;;;12.44;100.00
58622;BME280;44389;51.578;5.456;2023-05-23T05:23:40;101909.69;;;12.39;100.00
58622;BME280;44389;51.578;5.456;2023-05-23T05:26:06;101908.78;;;12.37;100.00
58622;BME280;44389;51.578;5.456;2023-05-23T05:28:32;101918.91;;;12.32;100.00
58622;BME280;44389;51.578;5.456;2023-05-23T05:30:57;101910.25;;;12.30;100.00
58622;BME280;44389;51.578;5.456;2023-05-23T05:33:22;101915.41;;;12.30;100.00
58622;BME280;44389;51.578;5.456;2023-05-23T05:35:49;101921.56;;;12.34;100.00
58622;BME280;44389;51.578;5.456;2023-05-23T05:38:16;101916.16;;;12.28;100.00
58622;BME280;44389;51.578;5.456;2023-05-23T05:40:41;101925.59;;;12.27;100.00
58622;BME280;44389;51.578;5.456;2023-05-23T05:43:06;101930.66;;;12.24;100.00
58622;BME280;44389;51.578;5.456;2023-05-23T05:45:32;101928.03;;;12.23;100.00
58622;BME280;44389;51.578;5.456;2023-05-23T05:47:57;101934.81;;;12.21;100.00
58622;BME280;44389;51.578;5.456;2023-05-23T05:50:22;101945.06;;;12.17;100.00
58622;BME280;44389;51.578;5.456;2023-05-23T05:52:48;101951.72;;;12.12;100.00
58622;BME280;44389;51.578;5.456;2023-05-23T05:55:14;101943.78;;;12.08;100.00
58622;BME280;44389;51.578;5.456;2023-05-23T05:57:40;101958.28;;;12.04;100.00
58622;BME280;44389;51.578;5.456;2023-05-23T06:00:07;101951.16;;;11.98;100.00
58622;BME280;44389;51.578;5.456;2023-05-23T06:02:37;101962.97;;;11.93;100.00
58622;BME280;44389;51.578;5.456;2023-05-23T06:05:03;101955.81;;;11.88;100.00
58622;BME280;44389;51.578;5.456;2023-05-23T06:07:30;101956.53;;;11.83;100.00
58622;BME280;44389;51.578;5.456;2023-05-23T06:09:55;101959.84;;;11.81;100.00
58622;BME280;44389;51.578;5.456;2023-05-23T06:12:21;101959.75;;;11.78;100.00
58622;BME280;44389;51.578;5.456;2023-05-23T06:14:46;101957.09;;;11.76;100.00
58622;BME280;44389;51.578;5.456;2023-05-23T06:17:11;101959.53;;;11.73;100.00
58622;BME280;44389;51.578;5.456;2023-05-23T06:19:36;101969.06;;;11.74;100.00
58622;BME280;44389;51.578;5.456;2023-05-23T06:22:02;101965.50;;;11.72;100.00
58622;BME280;44389;51.578;5.456;2023-05-23T06:24:28;101970.66;;;11.72;100.00
58622;BME280;44389;51.578;5.456;2023-05-23T06:26:53;101979.38;;;11.74;100.00
58622;BME280;44389;51.578;5.456;2023-05-23T06:29:18;101983.78;;;11.77;100.00
58622;BME280;44389;51.578;5.456;2023-05-23T06:31:43;101981.28;;;11.78;100.00
58622;BME280;44389;51.578;5.456;2023-05-23T06:34:09;101980.13;;;11.72;100.00
58622;BME280;44389;51.578;5.456;2023-05-23T06:36:34;101982.50;;;11.67;100.00
58622;BME280;44389;51.578;5.456;2023-05-23T06:38:59;101989.16;;;11.62;100.00
58622;BME280;44389;51.578;5.456;2023-05-23T06:41:24;101981.28;;;11.59;100.00
58622;BME280;44389;51.578;5.456;2023-05-23T06:43:51;101991.50;;;11.56;100.00
58622;BME280;44389;51.578;5.456;2023-05-23T06:46:17;102001.75;;;11.54;100.00
58622;BME280;44389;51.578;5.456;2023-05-23T06:48:42;102000.66;;;11.49;100.00
58622;BME280;44389;51.578;5.456;2023-05-23T06:51:07;102013.22;;;11.41;100.00
58622;BME280;44389;51.578;5.456;2023-05-23T06:53:33;102008.75;;;11.37;100.00
58622;BME280;44389;51.578;5.456;2023-05-23T06:55:58;102004.38;;;11.36;100.00
58622;BME280;44389;51.578;5.456;2023-05-23T06:58:24;102018.25;;;11.38;100.00
58622;BME280;44389;51.578;5.456;2023-05-23T07:00:49;102020.44;;;11.48;100.00
58622;BME280;44389;51.578;5.456;2023-05-23T07:03:14;102023.81;;;11.47;100.00
58622;BME280;44389;51.578;5.456;2023-05-23T07:05:40;102027.50;;;11.52;100.00
58622;BME280;44389;51.578;5.456;2023-05-23T07:08:06;102030.34;;;11.59;100.00
58622;BME280;44389;51.578;5.456;2023-05-23T07:10:31;102026.09;;;11.79;100.00
58622;BME280;44389;51.578;5.456;2023-05-23T07:12:58;102032.78;;;11.95;100.00
58622;BME280;44389;51.578;5.456;2023-05-23T07:15:24;102028.09;;;12.06;100.00
58622;BME280;44389;51.578;5.456;2023-05-23T07:17:49;102032.94;;;12.17;100.00
58622;BME280;44389;51.578;5.456;2023-05-23T07:20:14;102036.13;;;12.33;99.98
58622;BME280;44389;51.578;5.456;2023-05-23T07:22:40;102038.06;;;12.60;99.54
58622;BME280;44389;51.578;5.456;2023-05-23T07:25:05;102035.78;;;12.67;97.53
58622;BME280;44389;51.578;5.456;2023-05-23T07:27:31;102030.78;;;12.93;96.76
58622;BME280;44389;51.578;5.456;2023-05-23T07:29:56;102042.94;;;12.96;95.09
58622;BME280;44389;51.578;5.456;2023-05-23T07:32:22;102031.06;;;13.01;93.69
58622;BME280;44389;51.578;5.456;2023-05-23T07:34:47;102043.28;;;13.05;92.58
58622;BME280;44389;51.578;5.456;2023-05-23T07:37:12;102040.94;;;13.11;91.78
58622;BME280;44389;51.578;5.456;2023-05-23T07:39:38;102041.66;;;13.07;89.65
58622;BME280;44389;51.578;5.456;2023-05-23T07:42:03;102051.91;;;13.04;89.34
58622;BME280;44389;51.578;5.456;2023-05-23T07:44:28;102055.31;;;13.03;89.25
58622;BME280;44389;51.578;5.456;2023-05-23T07:46:54;102052.88;;;13.08;89.58
58622;BME280;44389;51.578;5.456;2023-05-23T07:49:19;102045.31;;;13.12;89.38
58622;BME280;44389;51.578;5.456;2023-05-23T07:51:45;102048.44;;;13.26;88.28
58622;BME280;44389;51.578;5.456;2023-05-23T07:54:10;102054.50;;;13.49;88.65
58622;BME280;44389;51.578;5.456;2023-05-23T07:56:35;102061.16;;;13.67;86.69
58622;BME280;44389;51.578;5.456;2023-05-23T07:59:02;102058.16;;;13.79;87.70
58622;BME280;44389;51.578;5.456;2023-05-23T08:01:27;102068.94;;;13.67;86.47
58622;BME280;44389;51.578;5.456;2023-05-23T08:03:53;102057.59;;;13.63;87.11
58622;BME280;44389;51.578;5.456;2023-05-23T08:06:19;102064.03;;;13.50;85.60
58622;BME280;44389;51.578;5.456;2023-05-23T08:08:44;102059.91;;;13.33;86.44
58622;BME280;44389;51.578;5.456;2023-05-23T08:11:10;102072.16;;;13.37;88.58
58622;BME280;44389;51.578;5.456;2023-05-23T08:13:35;102076.16;;;13.29;88.47
58622;BME280;44389;51.578;5.456;2023-05-23T08:16:00;102080.25;;;13.24;88.83
58622;BME280;44389;51.578;5.456;2023-05-23T08:18:25;102078.84;;;13.09;89.68
58622;BME280;44389;51.578;5.456;2023-05-23T08:20:52;102082.31;;;13.10;89.86
58622;BME280;44389;51.578;5.456;2023-05-23T08:23:17;102085.16;;;12.95;90.09
58622;BME280;44389;51.578;5.456;2023-05-23T08:25:43;102081.06;;;13.00;89.90
58622;BME280;44389;51.578;5.456;2023-05-23T08:28:09;102075.19;;;13.04;90.25
58622;BME280;44389;51.578;5.456;2023-05-23T08:30:34;102079.53;;;13.05;90.89
58622;BME280;44389;51.578;5.456;2023-05-23T08:33:00;102082.81;;;13.01;91.27
58622;BME280;44389;51.578;5.456;2023-05-23T08:35:28;102084.19;;;13.14;92.19
58622;BME280;44389;51.578;5.456;2023-05-23T08:37:57;102085.81;;;12.89;91.67
58622;BME280;44389;51.578;5.456;2023-05-23T08:40:26;102088.50;;;12.92;92.83
58622;BME280;44389;51.578;5.456;2023-05-23T08:42:53;102085.56;;;13.04;93.81
58622;BME280;44389;51.578;5.456;2023-05-23T08:45:18;102078.13;;;13.13;92.96
58622;BME280;44389;51.578;5.456;2023-05-23T08:47:45;102091.03;;;12.91;91.74
58622;BME280;44389;51.578;5.456;2023-05-23T08:50:13;102091.84;;;12.90;93.24
58622;BME280;44389;51.578;5.456;2023-05-23T08:55:16;102096.47;;;12.97;94.85
58622;BME280;44389;51.578;5.456;2023-05-23T08:57:41;102092.00;;;13.37;95.01
58622;BME280;44389;51.578;5.456;2023-05-23T09:00:11;102099.25;;;13.70;93.42
58622;BME280;44389;51.578;5.456;2023-05-23T09:02:41;102102.91;;;13.99;90.61
58622;BME280;44389;51.578;5.456;2023-05-23T09:05:07;102102.00;;;14.48;89.78
58622;BME280;44389;51.578;5.456;2023-05-23T09:07:34;102106.94;;;14.41;86.34
58622;BME280;44389;51.578;5.456;2023-05-23T09:09:59;102111.22;;;14.39;86.57
58622;BME280;44389;51.578;5.456;2023-05-23T09:12:24;102105.03;;;14.11;86.95
58622;BME280;44389;51.578;5.456;2023-05-23T09:14:50;102113.09;;;14.19;86.07
58622;BME280;44389;51.578;5.456;2023-05-23T09:17:18;102114.31;;;14.04;86.36
58622;BME280;44389;51.578;5.456;2023-05-23T09:19:43;102120.28;;;14.02;85.96
58622;BME280;44389;51.578;5.456;2023-05-23T09:22:10;102116.34;;;14.37;86.60
58622;BME280;44389;51.578;5.456;2023-05-23T09:24:36;102119.91;;;14.41;82.94
58622;BME280;44389;51.578;5.456;2023-05-23T09:27:04;102121.38;;;14.58;81.99
58622;BME280;44389;51.578;5.456;2023-05-23T09:29:29;102121.91;;;14.74;85.37
58622;BME280;44389;51.578;5.456;2023-05-23T09:32:21;102124.06;;;14.61;83.30
58622;BME280;44389;51.578;5.456;2023-05-23T09:37:15;102136.28;;;14.14;81.02
58622;BME280;44389;51.578;5.456;2023-05-23T09:39:46;102130.00;;;14.07;82.24
58622;BME280;44389;51.578;5.456;2023-05-23T09:42:19;102129.59;;;14.21;82.05
58622;BME280;44389;51.578;5.456;2023-05-23T09:44:45;102128.88;;;14.25;79.78
58622;BME280;44389;51.578;5.456;2023-05-23T09:47:10;102129.94;;;14.56;79.79
58622;BME280;44389;51.578;5.456;2023-05-23T09:49:38;102134.00;;;14.73;78.19
58622;BME280;44389;51.578;5.456;2023-05-23T09:52:04;102132.47;;;14.78;77.34
58622;BME280;44389;51.578;5.456;2023-05-23T09:54:29;102126.56;;;14.58;75.56
58622;BME280;44389;51.578;5.456;2023-05-23T09:56:56;102136.66;;;14.51;74.83
58622;BME280;44389;51.578;5.456;2023-05-23T09:59:27;102130.13;;;14.62;74.57
58622;BME280;44389;51.578;5.456;2023-05-23T10:01:52;102133.53;;;14.85;77.14
58622;BME280;44389;51.578;5.456;2023-05-23T10:04:21;102124.44;;;15.27;72.37
58622;BME280;44389;51.578;5.456;2023-05-23T10:06:52;102117.97;;;15.72;69.48
58622;BME280;44389;51.578;5.456;2023-05-23T10:09:20;102120.88;;;16.82;67.98
58622;BME280;44389;51.578;5.456;2023-05-23T10:12:33;102117.69;;;16.92;68.49
58622;BME280;44389;51.578;5.456;2023-05-23T10:15:03;102114.81;;;16.81;62.87
58622;BME280;44389;51.578;5.456;2023-05-23T10:20:29;102125.59;;;17.76;58.97
58622;BME280;44389;51.578;5.456;2023-05-23T10:22:57;102123.25;;;18.34;53.39
58622;BME280;44389;51.578;5.456;2023-05-23T10:25:23;102131.00;;;18.82;51.65
58622;BME280;44389;51.578;5.456;2023-05-23T10:27:49;102122.81;;;19.12;51.27
58622;BME280;44389;51.578;5.456;2023-05-23T10:30:14;102127.19;;;19.81;48.91
58622;BME280;44389;51.578;5.456;2023-05-23T10:32:41;102130.41;;;19.61;47.76
58622;BME280;44389;51.578;5.456;2023-05-23T10:35:16;102144.03;;;18.79;50.41
58622;BME280;44389;51.578;5.456;2023-05-23T10:46:12;102124.03;;;21.16;43.88
58622;BME280;44389;51.578;5.456;2023-05-23T10:48:42;102119.81;;;21.44;43.60
58622;BME280;44389;51.578;5.456;2023-05-23T10:51:09;102127.56;;;20.15;43.75
58622;BME280;44389;51.578;5.456;2023-05-23T10:53:36;102137.47;;;19.02;45.82
58622;BME280;44389;51.578;5.456;2023-05-23T10:56:06;102137.81;;;19.29;47.98
58622;BME280;44389;51.578;5.456;2023-05-23T10:58:33;102127.44;;;19.32;47.89
58622;BME280;44389;51.578;5.456;2023-05-23T11:01:00;102133.22;;;18.57;47.88
58622;BME280;44389;51.578;5.456;2023-05-23T11:03:30;102137.63;;;18.10;49.78
58622;BME280;44389;51.578;5.456;2023-05-23T11:06:00;102135.81;;;18.55;49.38
58622;BME280;44389;51.578;5.456;2023-05-23T11:08:26;102119.91;;;19.56;46.58
58622;BME280;44389;51.578;5.456;2023-05-23T11:10:52;102124.50;;;19.74;43.05
58622;BME280;44389;51.578;5.456;2023-05-23T11:13:19;102141.31;;;19.95;44.39
58622;BME280;44389;51.578;5.456;2023-05-23T11:15:45;102132.59;;;19.27;43.41
58622;BME280;44389;51.578;5.456;2023-05-23T11:18:19;102129.84;;;18.64;46.25
58622;BME280;44389;51.578;5.456;2023-05-23T11:20:45;102132.19;;;19.64;46.23
58622;BME280;44389;51.578;5.456;2023-05-23T11:23:11;102128.50;;;20.23;42.03
58622;BME280;44389;51.578;5.456;2023-05-23T11:25:40;102132.25;;;20.50;41.02
58622;BME280;44389;51.578;5.456;2023-05-23T11:28:07;102121.31;;;20.97;40.48
58622;BME280;44389;51.578;5.456;2023-05-23T11:30:34;102123.50;;;21.76;42.05
58622;BME280;44389;51.578;5.456;2023-05-23T11:33:08;102120.34;;;20.86;41.82
58622;BME280;44389;51.578;5.456;2023-05-23T11:35:49;102141.75;;;20.38;42.98
58622;BME280;44389;51.578;5.456;2023-05-23T11:38:16;102134.44;;;20.05;42.69
58622;BME280;44389;51.578;5.456;2023-05-23T11:40:43;102137.56;;;19.73;43.16
58622;BME280;44389;51.578;5.456;2023-05-23T11:43:10;102130.63;;;20.64;42.71
58622;BME280;44389;51.578;5.456;2023-05-23T11:45:37;102133.44;;;20.83;40.04
58622;BME280;44389;51.578;5.456;2023-05-23T11:48:13;102129.31;;;21.22;40.07
58622;BME280;44389;51.578;5.456;2023-05-23T11:50:52;102148.63;;;21.36;40.54
58622;BME280;44389;51.578;5.456;2023-05-23T11:53:19;102140.19;;;22.10;38.50
58622;BME280;44389;51.578;5.456;2023-05-23T11:55:55;102144.47;;;21.71;39.16
58622;BME280;44389;51.578;5.456;2023-05-23T11:58:27;102144.28;;;20.29;40.10
58622;BME280;44389;51.578;5.456;2023-05-23T12:01:04;102154.47;;;20.94;42.40
58622;BME280;44389;51.578;5.456;2023-05-23T12:03:30;102148.06;;;22.07;38.14
58622;BME280;44389;51.578;5.456;2023-05-23T12:05:56;102141.81;;;21.60;38.91
58622;BME280;44389;51.578;5.456;2023-05-23T12:08:21;102143.69;;;22.08;36.42
58622;BME280;44389;51.578;5.456;2023-05-23T12:10:51;102148.94;;;21.95;36.58
58622;BME280;44389;51.578;5.456;2023-05-23T12:13:18;102148.06;;;22.02;37.12
58622;BME280;44389;51.578;5.456;2023-05-23T12:15:43;102150.88;;;20.78;38.18
58622;BME280;44389;51.578;5.456;2023-05-23T12:18:09;102146.03;;;19.55;41.06
58622;BME280;44389;51.578;5.456;2023-05-23T12:20:36;102156.13;;;19.29;42.77
58622;BME280;44389;51.578;5.456;2023-05-23T12:23:04;102159.03;;;19.49;43.17
58622;BME280;44389;51.578;5.456;2023-05-23T12:25:39;102162.63;;;18.97;44.96
58622;BME280;44389;51.578;5.456;2023-05-23T12:28:06;102164.75;;;18.69;42.29
58622;BME280;44389;51.578;5.456;2023-05-23T12:30:40;102159.44;;;18.63;43.76
58622;BME280;44389;51.578;5.456;2023-05-23T12:33:07;102166.78;;;18.86;42.40
58622;BME280;44389;51.578;5.456;2023-05-23T12:35:33;102156.97;;;19.90;41.85
58622;BME280;44389;51.578;5.456;2023-05-23T12:37:58;102159.81;;;20.11;40.08
58622;BME280;44389;51.578;5.456;2023-05-23T12:40:24;102166.75;;;20.05;40.37
58622;BME280;44389;51.578;5.456;2023-05-23T12:42:53;102171.41;;;20.36;38.83
58622;BME280;44389;51.578;5.456;2023-05-23T12:47:48;102177.38;;;21.18;37.10
58622;BME280;44389;51.578;5.456;2023-05-23T12:50:14;102175.06;;;20.52;37.39
58622;BME280;44389;51.578;5.456;2023-05-23T12:52:39;102170.66;;;19.72;39.06
58622;BME280;44389;51.578;5.456;2023-05-23T12:55:06;102172.09;;;19.49;40.98
58622;BME280;44389;51.578;5.456;2023-05-23T12:57:33;102177.44;;;20.27;40.15
58622;BME280;44389;51.578;5.456;2023-05-23T12:59:58;102169.69;;;20.38;39.51
58622;BME280;44389;51.578;5.456;2023-05-23T13:02:23;102173.75;;;20.06;40.41
58622;BME280;44389;51.578;5.456;2023-05-23T13:04:49;102176.13;;;19.25;42.22
58622;BME280;44389;51.578;5.456;2023-05-23T13:07:14;102173.69;;;19.37;42.08
58622;BME280;44389;51.578;5.456;2023-05-23T13:09:40;102175.06;;;19.77;41.74